createdAt,value
2023-04-27T00:00:34.399Z,1001.73
2023-04-27T00:01:34.396Z,1001.75
2023-04-27T00:02:34.553Z,1001.73
2023-04-27T00:03:34.544Z,1001.80
2023-04-27T00:04:34.537Z,1001.70
2023-04-27T00:05:34.388Z,1001.70
2023-04-27T00:06:34.351Z,1001.71
2023-04-27T00:07:34.321Z,1001.71
2023-04-27T00:08:34.305Z,1001.70
2023-04-27T00:09:34.336Z,1001.71
2023-04-27T00:10:34.290Z,1001.76
2023-04-27T00:11:34.301Z,1001.75
2023-04-27T00:12:34.266Z,1001.74
2023-04-27T00:13:34.243Z,1001.75
2023-04-27T00:14:34.236Z,1001.72
2023-04-27T00:15:34.277Z,1001.78
2023-04-27T00:16:34.317Z,1001.70
2023-04-27T00:17:34.230Z,1001.69
2023-04-27T00:18:34.193Z,1001.72
2023-04-27T00:19:34.192Z,1001.69
2023-04-27T00:20:34.189Z,1001.73
2023-04-27T00:21:34.156Z,1001.71
2023-04-27T00:22:34.147Z,1001.76
2023-04-27T00:23:34.225Z,1001.73
2023-04-27T00:24:34.099Z,1001.72
2023-04-27T00:25:34.088Z,1001.71
2023-04-27T00:26:34.074Z,1001.72
2023-04-27T00:27:34.105Z,1001.72
2023-04-27T00:28:34.099Z,1001.76
2023-04-27T00:29:34.058Z,1001.75
2023-04-27T00:30:34.057Z,1001.72
2023-04-27T00:31:34.075Z,1001.79
2023-04-27T00:32:34.032Z,1001.80
2023-04-27T00:33:34.004Z,1001.84
2023-04-27T00:34:34.028Z,1001.82
2023-04-27T00:35:33.994Z,1001.83
2023-04-27T00:36:33.988Z,1001.79
2023-04-27T00:37:33.952Z,1001.84
2023-04-27T00:38:33.933Z,1001.77
2023-04-27T00:39:33.927Z,1001.82
2023-04-27T00:40:33.941Z,1001.83
2023-04-27T00:41:33.916Z,1001.82
2023-04-27T00:42:33.950Z,1001.86
2023-04-27T00:43:33.883Z,1001.82
2023-04-27T00:44:33.874Z,1001.84
2023-04-27T00:45:33.865Z,1001.85
2023-04-27T00:46:33.874Z,1001.88
2023-04-27T00:47:33.896Z,1001.89
2023-04-27T00:48:33.817Z,1001.90
2023-04-27T00:49:33.833Z,1001.94
2023-04-27T00:50:33.797Z,1001.89
2023-04-27T00:51:33.784Z,1001.89
2023-04-27T00:52:33.792Z,1001.86
2023-04-27T00:53:33.798Z,1001.85
2023-04-27T00:54:33.748Z,1001.88
2023-04-27T00:55:33.744Z,1001.91
2023-04-27T00:56:33.715Z,1001.91
2023-04-27T00:57:33.754Z,1001.89
2023-04-27T00:58:33.728Z,1001.91
2023-04-27T00:59:33.728Z,1001.92
2023-04-27T01:00:33.674Z,1001.95
2023-04-27T01:01:33.737Z,1001.91
2023-04-27T01:02:33.861Z,1001.97
2023-04-27T01:03:33.836Z,1001.98
2023-04-27T01:04:33.724Z,1001.96
2023-04-27T01:05:33.643Z,1001.93
2023-04-27T01:06:33.587Z,1001.94
2023-04-27T01:07:33.594Z,1001.91
2023-04-27T01:08:33.646Z,1001.94
2023-04-27T01:09:33.578Z,1001.93
2023-04-27T01:10:33.568Z,1001.86
2023-04-27T01:11:33.539Z,1001.86
2023-04-27T01:12:33.539Z,1001.92
2023-04-27T01:13:33.560Z,1001.89
2023-04-27T01:14:33.526Z,1001.84
2023-04-27T01:15:33.525Z,1001.92
2023-04-27T01:16:33.511Z,1001.94
2023-04-27T01:17:33.512Z,1001.91
2023-04-27T01:18:33.484Z,1001.91
2023-04-27T01:19:33.465Z,1001.88
2023-04-27T01:20:33.447Z,1001.89
2023-04-27T01:21:33.459Z,1001.90
2023-04-27T01:22:33.418Z,1001.86
2023-04-27T01:23:33.406Z,1001.89
2023-04-27T01:24:33.466Z,1001.89
2023-04-27T01:25:33.375Z,1001.87
2023-04-27T01:26:33.391Z,1001.89
2023-04-27T01:27:33.356Z,1001.90
2023-04-27T01:28:33.356Z,1001.85
2023-04-27T01:29:33.362Z,1001.88
2023-04-27T01:30:33.329Z,1001.83
2023-04-27T01:31:33.412Z,1001.87
2023-04-27T01:32:33.304Z,1001.85
2023-04-27T01:33:33.284Z,1001.83
2023-04-27T01:34:33.290Z,1001.79
2023-04-27T01:35:33.254Z,1001.79
2023-04-27T01:36:33.296Z,1001.71
2023-04-27T01:37:33.249Z,1001.70
2023-04-27T01:38:33.263Z,1001.70
2023-04-27T01:39:33.217Z,1001.72
2023-04-27T01:40:33.223Z,1001.72
2023-04-27T01:41:33.202Z,1001.75
2023-04-27T01:42:33.233Z,1001.73
2023-04-27T01:43:33.180Z,1001.80
2023-04-27T01:44:33.153Z,1001.74
2023-04-27T01:45:33.177Z,1001.85
2023-04-27T01:46:33.213Z,1001.83
2023-04-27T01:47:33.214Z,1001.89
2023-04-27T01:48:33.105Z,1001.92
2023-04-27T01:49:33.111Z,1001.93
2023-04-27T01:50:33.140Z,1001.97
2023-04-27T01:51:33.089Z,1001.98
2023-04-27T01:52:33.064Z,1001.98
2023-04-27T01:53:33.065Z,1002.01
2023-04-27T01:54:33.077Z,1001.95
2023-04-27T01:55:33.061Z,1001.98
2023-04-27T01:56:33.025Z,1001.94
2023-04-27T01:57:33.014Z,1001.99
2023-04-27T01:58:33.001Z,1002.01
2023-04-27T01:59:33.017Z,1001.95
2023-04-27T02:00:33.011Z,1001.93
2023-04-27T02:01:33.002Z,1001.98
2023-04-27T02:02:33.088Z,1001.96
2023-04-27T02:03:33.088Z,1001.97
2023-04-27T02:04:33.144Z,1001.98
2023-04-27T02:05:32.953Z,1001.98
2023-04-27T02:06:32.920Z,1002.05
2023-04-27T02:07:32.884Z,1001.98
2023-04-27T02:08:32.886Z,1002.12
2023-04-27T02:09:32.927Z,1002.03
2023-04-27T02:10:32.869Z,1002.05
2023-04-27T02:11:32.853Z,1002.15
2023-04-27T02:12:32.837Z,1002.11
2023-04-27T02:13:32.830Z,1002.16
2023-04-27T02:14:32.802Z,1002.10
2023-04-27T02:15:32.835Z,1002.14
2023-04-27T02:16:32.864Z,1002.08
2023-04-27T02:17:32.791Z,1002.06
2023-04-27T02:18:32.776Z,1002.05
2023-04-27T02:19:32.752Z,1002.11
2023-04-27T02:20:32.764Z,1002.07
2023-04-27T02:21:32.742Z,1002.11
2023-04-27T02:22:32.719Z,1002.07
2023-04-27T02:23:32.683Z,1002.13
2023-04-27T02:24:32.678Z,1002.11
2023-04-27T02:25:32.692Z,1002.19
2023-04-27T02:26:32.710Z,1002.14
2023-04-27T02:27:32.652Z,1002.15
2023-04-27T02:28:32.682Z,1002.07
2023-04-27T02:29:32.636Z,1002.02
2023-04-27T02:30:32.604Z,1002.10
2023-04-27T02:31:32.673Z,1002.15
2023-04-27T02:32:32.627Z,1002.21
2023-04-27T02:33:32.590Z,1002.22
2023-04-27T02:34:32.561Z,1002.13
2023-04-27T02:35:32.556Z,1002.25
2023-04-27T02:36:32.546Z,1002.26
2023-04-27T02:37:32.538Z,1002.25
2023-04-27T02:38:32.561Z,1002.25
2023-04-27T02:39:32.518Z,1002.27
2023-04-27T02:40:32.531Z,1002.23
2023-04-27T02:41:32.491Z,1002.25
2023-04-27T02:42:32.473Z,1002.21
2023-04-27T02:43:32.456Z,1002.25
2023-04-27T02:44:32.454Z,1002.29
2023-04-27T02:45:32.444Z,1002.26
2023-04-27T02:46:32.559Z,1002.26
2023-04-27T02:47:32.456Z,1002.31
2023-04-27T02:48:32.396Z,1002.26
2023-04-27T02:49:32.387Z,1002.26
2023-04-27T02:50:32.417Z,1002.21
2023-04-27T02:51:32.371Z,1002.14
2023-04-27T02:52:32.372Z,1002.15
2023-04-27T02:53:32.405Z,1002.13
2023-04-27T02:54:32.317Z,1002.16
2023-04-27T02:55:32.310Z,1002.19
2023-04-27T02:56:32.302Z,1002.20
2023-04-27T02:57:32.314Z,1002.29
2023-04-27T02:58:32.311Z,1002.28
2023-04-27T02:59:32.260Z,1002.23
2023-04-27T03:00:32.252Z,1002.28
2023-04-27T03:01:32.341Z,1002.23
2023-04-27T03:02:32.330Z,1002.37
2023-04-27T03:03:32.372Z,1002.35
2023-04-27T03:04:32.256Z,1002.25
2023-04-27T03:05:32.209Z,1002.26
2023-04-27T03:06:32.191Z,1002.25
2023-04-27T03:07:32.185Z,1002.24
2023-04-27T03:08:32.145Z,1002.28
2023-04-27T03:09:32.171Z,1002.28
2023-04-27T03:10:32.123Z,1002.30
2023-04-27T03:11:32.150Z,1002.24
2023-04-27T03:12:32.125Z,1002.28
2023-04-27T03:13:32.103Z,1002.27
2023-04-27T03:14:32.076Z,1002.29
2023-04-27T03:15:32.058Z,1002.33
2023-04-27T03:16:32.160Z,1002.32
2023-04-27T03:17:32.085Z,1002.33
2023-04-27T03:18:32.071Z,1002.35
2023-04-27T03:19:32.021Z,1002.36
2023-04-27T03:20:31.999Z,1002.41
2023-04-27T03:21:32.045Z,1002.42
2023-04-27T03:22:32.016Z,1002.42
2023-04-27T03:23:31.967Z,1002.42
2023-04-27T03:24:31.996Z,1002.41
2023-04-27T03:25:31.940Z,1002.50
2023-04-27T03:26:31.945Z,1002.39
2023-04-27T03:27:31.950Z,1002.42
2023-04-27T03:28:31.907Z,1002.41
2023-04-27T03:29:31.912Z,1002.41
2023-04-27T03:30:31.939Z,1002.42
2023-04-27T03:31:31.967Z,1002.43
2023-04-27T03:32:31.890Z,1002.50
2023-04-27T03:33:31.865Z,1002.50
2023-04-27T03:34:31.828Z,1002.50
2023-04-27T03:35:31.882Z,1002.53
2023-04-27T03:36:31.831Z,1002.48
2023-04-27T03:37:31.829Z,1002.55
2023-04-27T03:38:31.791Z,1002.51
2023-04-27T03:39:31.790Z,1002.61
2023-04-27T03:40:31.779Z,1002.58
2023-04-27T03:41:31.778Z,1002.54
2023-04-27T03:42:31.775Z,1002.60
2023-04-27T03:43:31.737Z,1002.58
2023-04-27T03:44:31.751Z,1002.63
2023-04-27T03:45:31.702Z,1002.65
2023-04-27T03:46:31.724Z,1002.62
2023-04-27T03:47:31.715Z,1002.67
2023-04-27T03:48:31.678Z,1002.65
2023-04-27T03:49:31.690Z,1002.65
2023-04-27T03:50:31.667Z,1002.67
2023-04-27T03:51:31.651Z,1002.63
2023-04-27T03:52:31.616Z,1002.58
2023-04-27T03:53:31.615Z,1002.66
2023-04-27T03:54:31.613Z,1002.62
2023-04-27T03:55:31.576Z,1002.67
2023-04-27T03:56:31.611Z,1002.65
2023-04-27T03:57:31.581Z,1002.66
2023-04-27T03:58:31.583Z,1002.70
2023-04-27T03:59:31.554Z,1002.71
2023-04-27T04:00:31.525Z,1002.70
2023-04-27T04:01:31.524Z,1002.69
2023-04-27T04:02:31.626Z,1002.74
2023-04-27T04:03:31.591Z,1002.68
2023-04-27T04:04:31.820Z,1002.67
2023-04-27T04:05:31.465Z,1002.66
2023-04-27T04:06:31.478Z,1002.66
2023-04-27T04:07:31.469Z,1002.67
2023-04-27T04:08:31.446Z,1002.64
2023-04-27T04:09:31.483Z,1002.68
2023-04-27T04:10:31.441Z,1002.68
2023-04-27T04:11:31.400Z,1002.74
2023-04-27T04:12:31.388Z,1002.67
2023-04-27T04:13:31.393Z,1002.71
2023-04-27T04:14:31.369Z,1002.68
2023-04-27T04:15:31.451Z,1002.72
2023-04-27T04:16:31.455Z,1002.68
2023-04-27T04:17:31.369Z,1002.75
2023-04-27T04:18:31.361Z,1002.72
2023-04-27T04:19:31.316Z,1002.74
2023-04-27T04:20:31.307Z,1002.74
2023-04-27T04:21:31.274Z,1002.78
2023-04-27T04:22:31.298Z,1002.77
2023-04-27T04:23:31.278Z,1002.77
2023-04-27T04:24:31.270Z,1002.75
2023-04-27T04:25:31.269Z,1002.74
2023-04-27T04:26:31.231Z,1002.76
2023-04-27T04:27:31.200Z,1002.76
2023-04-27T04:28:31.261Z,1002.73
2023-04-27T04:29:31.174Z,1002.76
2023-04-27T04:30:31.176Z,1002.78
2023-04-27T04:31:31.217Z,1002.81
2023-04-27T04:32:31.251Z,1002.85
2023-04-27T04:33:31.200Z,1002.86
2023-04-27T04:34:31.137Z,1002.79
2023-04-27T04:35:31.144Z,1002.84
2023-04-27T04:36:31.107Z,1002.79
2023-04-27T04:37:31.107Z,1002.78
2023-04-27T04:38:31.137Z,1002.72
2023-04-27T04:39:31.094Z,1002.70
2023-04-27T04:40:31.062Z,1002.69
2023-04-27T04:41:31.042Z,1002.63
2023-04-27T04:42:31.047Z,1002.69
2023-04-27T04:43:31.047Z,1002.70
2023-04-27T04:44:31.010Z,1002.71
2023-04-27T04:45:31.042Z,1002.78
2023-04-27T04:46:31.098Z,1002.80
2023-04-27T04:47:31.032Z,1002.86
2023-04-27T04:48:31.007Z,1002.83
2023-04-27T04:49:31.044Z,1002.83
2023-04-27T04:50:30.927Z,1002.83
2023-04-27T04:51:30.923Z,1002.83
2023-04-27T04:52:30.944Z,1002.78
2023-04-27T04:53:30.900Z,1002.88
2023-04-27T04:54:30.920Z,1002.86
2023-04-27T04:55:30.877Z,1002.85
2023-04-27T04:56:30.889Z,1002.91
2023-04-27T04:57:30.865Z,1002.86
2023-04-27T04:58:30.853Z,1002.85
2023-04-27T04:59:32.044Z,1002.85
2023-04-27T05:00:30.857Z,1002.87
2023-04-27T05:01:30.879Z,1002.89
2023-04-27T05:02:30.917Z,1002.88
2023-04-27T05:03:30.903Z,1002.87
2023-04-27T05:04:30.921Z,1002.90
2023-04-27T05:05:31.016Z,1002.92
2023-04-27T05:06:30.747Z,1002.93
2023-04-27T05:07:30.731Z,1002.85
2023-04-27T05:08:30.761Z,1002.86
2023-04-27T05:09:30.721Z,1002.87
2023-04-27T05:10:30.706Z,1002.82
2023-04-27T05:11:30.714Z,1002.81
2023-04-27T05:12:30.675Z,1002.83
2023-04-27T05:13:30.698Z,1002.78
2023-04-27T05:14:30.661Z,1002.71
2023-04-27T05:15:30.658Z,1002.78
2023-04-27T05:16:30.742Z,1002.78
2023-04-27T05:17:30.639Z,1002.76
2023-04-27T05:18:30.603Z,1002.78
2023-04-27T05:19:30.617Z,1002.81
2023-04-27T05:20:30.621Z,1002.78
2023-04-27T05:21:30.570Z,1002.78
2023-04-27T05:22:30.574Z,1002.79
2023-04-27T05:23:30.574Z,1002.75
2023-04-27T05:24:30.554Z,1002.77
2023-04-27T05:25:30.546Z,1002.73
2023-04-27T05:26:30.544Z,1002.75
2023-04-27T05:27:30.528Z,1002.71
2023-04-27T05:28:30.485Z,1002.70
2023-04-27T05:29:30.469Z,1002.71
2023-04-27T05:30:30.456Z,1002.65
2023-04-27T05:31:30.570Z,1002.65
2023-04-27T05:32:30.482Z,1002.68
2023-04-27T05:33:30.419Z,1002.67
2023-04-27T05:34:30.433Z,1002.66
2023-04-27T05:35:30.441Z,1002.69
2023-04-27T05:36:30.421Z,1002.70
2023-04-27T05:37:30.389Z,1002.67
2023-04-27T05:38:30.372Z,1002.69
2023-04-27T05:39:30.378Z,1002.69
2023-04-27T05:40:30.376Z,1002.66
2023-04-27T05:41:30.381Z,1002.68
2023-04-27T05:42:30.338Z,1002.69
2023-04-27T05:43:30.318Z,1002.63
2023-04-27T05:44:30.304Z,1002.64
2023-04-27T05:45:30.299Z,1002.65
2023-04-27T05:46:30.318Z,1002.69
2023-04-27T05:47:30.354Z,1002.67
2023-04-27T05:48:30.268Z,1002.66
2023-04-27T05:49:30.274Z,1002.69
2023-04-27T05:50:30.263Z,1002.76
2023-04-27T05:51:30.216Z,1002.75
2023-04-27T05:52:30.345Z,1002.73
2023-04-27T05:53:30.196Z,1002.76
2023-04-27T05:54:30.216Z,1002.79
2023-04-27T05:55:30.187Z,1002.73
2023-04-27T05:56:30.194Z,1002.82
2023-04-27T05:57:30.145Z,1002.78
2023-04-27T05:58:30.138Z,1002.83
2023-04-27T05:59:30.149Z,1002.82
2023-04-27T06:00:30.172Z,1002.79
2023-04-27T06:01:30.114Z,1002.78
2023-04-27T06:02:30.288Z,1002.80
2023-04-27T06:03:30.263Z,1002.80
2023-04-27T06:04:30.231Z,1002.78
2023-04-27T06:05:30.087Z,1002.77
2023-04-27T06:06:30.077Z,1002.82
2023-04-27T06:07:30.074Z,1002.91
2023-04-27T06:08:30.027Z,1002.91
2023-04-27T06:09:30.027Z,1002.89
2023-04-27T06:10:29.996Z,1002.89
2023-04-27T06:11:30.002Z,1002.94
2023-04-27T06:12:30.001Z,1002.90
2023-04-27T06:13:29.996Z,1002.81
2023-04-27T06:14:29.966Z,1002.85
2023-04-27T06:15:29.950Z,1002.86
2023-04-27T06:16:30.115Z,1002.92
2023-04-27T06:17:30.041Z,1002.90
2023-04-27T06:18:29.915Z,1002.95
2023-04-27T06:19:29.908Z,1002.99
2023-04-27T06:20:29.895Z,1002.94
2023-04-27T06:21:30.034Z,1002.99
2023-04-27T06:22:29.900Z,1002.99
2023-04-27T06:23:29.869Z,1002.99
2023-04-27T06:24:29.839Z,1002.99
2023-04-27T06:25:29.824Z,1002.99
2023-04-27T06:26:29.826Z,1002.97
2023-04-27T06:27:29.799Z,1002.94
2023-04-27T06:28:29.874Z,1002.98
2023-04-27T06:29:29.803Z,1002.95
2023-04-27T06:30:29.790Z,1002.90
2023-04-27T06:31:29.803Z,1002.95
2023-04-27T06:32:29.779Z,1002.89
2023-04-27T06:33:29.735Z,1002.93
2023-04-27T06:34:29.897Z,1002.95
2023-04-27T06:35:29.755Z,1003.00
2023-04-27T06:36:29.706Z,1002.96
2023-04-27T06:37:29.702Z,1002.99
2023-04-27T06:38:29.669Z,1003.01
2023-04-27T06:39:29.687Z,1002.97
2023-04-27T06:40:29.679Z,1002.98
2023-04-27T06:41:29.665Z,1003.02
2023-04-27T06:42:29.652Z,1003.03
2023-04-27T06:43:30.616Z,1003.00
2023-04-27T06:44:29.597Z,1003.05
2023-04-27T06:45:29.642Z,1002.97
2023-04-27T06:46:29.673Z,1002.97
2023-04-27T06:47:29.577Z,1002.99
2023-04-27T06:48:29.585Z,1003.02
2023-04-27T06:49:29.579Z,1003.01
2023-04-27T06:50:29.575Z,1002.99
2023-04-27T06:51:29.556Z,1003.05
2023-04-27T06:52:29.556Z,1003.04
2023-04-27T06:53:29.504Z,1003.00
2023-04-27T06:54:29.507Z,1003.01
2023-04-27T06:55:29.718Z,1003.05
2023-04-27T06:56:29.506Z,1003.00
2023-04-27T06:57:29.505Z,1002.99
2023-04-27T06:58:29.442Z,1003.02
2023-04-27T06:59:29.462Z,1002.97
2023-04-27T07:00:29.429Z,1002.99
2023-04-27T07:01:29.423Z,1002.99
2023-04-27T07:02:29.495Z,1003.00
2023-04-27T07:03:29.580Z,1003.02
2023-04-27T07:04:29.486Z,1003.01
2023-04-27T07:05:29.376Z,1003.05
2023-04-27T07:06:29.364Z,1003.05
2023-04-27T07:07:29.339Z,1003.11
2023-04-27T07:08:29.393Z,1003.01
2023-04-27T07:09:29.530Z,1002.99
2023-04-27T07:10:29.308Z,1003.02
2023-04-27T07:11:29.329Z,1003.04
2023-04-27T07:12:29.330Z,1003.02
2023-04-27T07:13:29.307Z,1003.00
2023-04-27T07:14:29.260Z,1002.95
2023-04-27T07:15:29.245Z,1002.94
2023-04-27T07:16:29.249Z,1002.98
2023-04-27T07:17:29.271Z,1002.96
2023-04-27T07:18:29.258Z,1002.90
2023-04-27T07:19:29.197Z,1002.89
2023-04-27T07:20:29.221Z,1002.92
2023-04-27T07:21:29.183Z,1002.91
2023-04-27T07:22:29.182Z,1002.94
2023-04-27T07:23:29.184Z,1002.96
2023-04-27T07:24:29.173Z,1002.97
2023-04-27T07:25:29.189Z,1003.04
2023-04-27T07:26:29.121Z,1002.98
2023-04-27T07:27:29.114Z,1003.01
2023-04-27T07:28:29.136Z,1002.90
2023-04-27T07:29:29.341Z,1002.83
2023-04-27T07:30:29.109Z,1002.82
2023-04-27T07:31:29.122Z,1002.93
2023-04-27T07:32:29.106Z,1002.83
2023-04-27T07:33:29.042Z,1002.86
2023-04-27T07:34:35.060Z,1002.90
2023-04-27T07:35:30.058Z,1002.93
2023-04-27T07:36:29.011Z,1002.96
2023-04-27T07:37:29.087Z,1002.91
2023-04-27T07:38:28.999Z,1002.86
2023-04-27T07:39:28.979Z,1002.85
2023-04-27T07:40:28.950Z,1002.88
2023-04-27T07:41:28.952Z,1002.82
2023-04-27T07:42:29.989Z,1002.85
2023-04-27T07:43:28.969Z,1002.88
2023-04-27T07:44:28.909Z,1002.90
2023-04-27T07:45:28.913Z,1002.84
2023-04-27T07:46:28.909Z,1002.83
2023-04-27T07:47:28.883Z,1002.82
2023-04-27T07:48:28.936Z,1002.86
2023-04-27T07:49:28.890Z,1002.94
2023-04-27T07:50:28.861Z,1002.86
2023-04-27T07:51:29.001Z,1002.87
2023-04-27T07:52:28.877Z,1002.84
2023-04-27T07:53:28.799Z,1002.86
2023-04-27T07:54:28.819Z,1002.86
2023-04-27T07:55:28.777Z,1002.85
2023-04-27T07:56:28.784Z,1002.78
2023-04-27T07:57:28.774Z,1002.81
2023-04-27T07:58:28.802Z,1002.76
2023-04-27T07:59:28.757Z,1002.73
2023-04-27T08:00:28.772Z,1002.75
2023-04-27T08:01:28.711Z,1002.74
2023-04-27T08:02:28.841Z,1002.70
2023-04-27T08:03:28.910Z,1002.73
2023-04-27T08:04:29.031Z,1002.71
2023-04-27T08:05:29.077Z,1002.73
2023-04-27T08:06:29.569Z,1002.73
2023-04-27T08:07:29.238Z,1002.67
2023-04-27T08:08:28.661Z,1002.72
2023-04-27T08:09:28.658Z,1002.74
2023-04-27T08:10:28.632Z,1002.80
2023-04-27T08:11:28.621Z,1002.71
2023-04-27T08:12:28.610Z,1002.80
2023-04-27T08:13:28.648Z,1002.77
2023-04-27T08:14:28.593Z,1002.82
2023-04-27T08:15:28.597Z,1002.83
2023-04-27T08:16:28.592Z,1002.80
2023-04-27T08:17:28.598Z,1002.80
2023-04-27T08:18:28.615Z,1002.76
2023-04-27T08:19:28.510Z,1002.76
2023-04-27T08:20:28.509Z,1002.74
2023-04-27T08:21:28.558Z,1002.74
2023-04-27T08:22:28.479Z,1002.72
2023-04-27T08:23:28.679Z,1002.72
2023-04-27T08:24:28.486Z,1002.75
2023-04-27T08:25:28.486Z,1002.74
2023-04-27T08:26:28.461Z,1002.63
2023-04-27T08:27:28.465Z,1002.73
2023-04-27T08:28:28.435Z,1002.71
2023-04-27T08:29:29.250Z,1002.67
2023-04-27T08:30:28.465Z,1002.67
2023-04-27T08:31:28.429Z,1002.65
2023-04-27T08:32:28.407Z,1002.61
2023-04-27T08:33:28.393Z,1002.66
2023-04-27T08:34:28.406Z,1002.71
2023-04-27T08:35:28.391Z,1002.64
2023-04-27T08:36:28.347Z,1002.56
2023-04-27T08:37:28.343Z,1002.59
2023-04-27T08:38:28.343Z,1002.58
2023-04-27T08:39:28.369Z,1002.58
2023-04-27T08:40:28.297Z,1002.56
2023-04-27T08:41:28.276Z,1002.53
2023-04-27T08:42:28.282Z,1002.51
2023-04-27T08:43:28.290Z,1002.55
2023-04-27T08:44:28.298Z,1002.50
2023-04-27T08:45:28.332Z,1002.50
2023-04-27T08:46:28.275Z,1002.48
2023-04-27T08:47:41.201Z,1002.51
2023-04-27T08:48:29.285Z,1002.55
2023-04-27T08:49:28.191Z,1002.55
2023-04-27T08:50:28.174Z,1002.61
2023-04-27T08:51:28.240Z,1002.56
2023-04-27T08:52:28.167Z,1002.54
2023-04-27T08:53:28.168Z,1002.53
2023-04-27T08:54:28.140Z,1002.58
2023-04-27T08:55:28.144Z,1002.64
2023-04-27T08:56:28.112Z,1002.60
2023-04-27T08:57:28.146Z,1002.65
2023-04-27T08:58:28.112Z,1002.68
2023-04-27T08:59:28.089Z,1002.69
2023-04-27T09:00:28.064Z,1002.67
2023-04-27T09:01:28.085Z,1002.62
2023-04-27T09:02:28.125Z,1002.59
2023-04-27T09:03:28.224Z,1002.61
2023-04-27T09:04:28.194Z,1002.65
2023-04-27T09:05:28.096Z,1002.71
2023-04-27T09:06:28.066Z,1002.62
2023-04-27T09:07:28.623Z,1002.61
2023-04-27T09:08:28.009Z,1002.68
2023-04-27T09:09:28.028Z,1002.60
2023-04-27T09:10:27.992Z,1002.74
2023-04-27T09:11:27.980Z,1002.72
2023-04-27T09:12:27.950Z,1002.71
2023-04-27T09:13:30.957Z,1002.71
2023-04-27T09:14:27.916Z,1002.50
2023-04-27T09:15:28.022Z,1002.53
2023-04-27T09:16:27.911Z,1002.49
2023-04-27T09:17:27.994Z,1002.45
2023-04-27T09:18:27.869Z,1002.43
2023-04-27T09:19:27.901Z,1002.44
2023-04-27T09:20:27.866Z,1002.37
2023-04-27T09:21:27.910Z,1002.37
2023-04-27T09:22:27.865Z,1002.39
2023-04-27T09:23:27.878Z,1002.54
2023-04-27T09:24:27.845Z,1002.58
2023-04-27T09:25:27.869Z,1002.36
2023-04-27T09:26:27.826Z,1002.34
2023-04-27T09:27:27.810Z,1002.31
2023-04-27T09:28:27.770Z,1002.44
2023-04-27T09:29:27.785Z,1002.44
2023-04-27T09:30:27.759Z,1002.44
2023-04-27T09:31:27.780Z,1002.42
2023-04-27T09:32:27.753Z,1002.44
2023-04-27T09:33:27.720Z,1002.46
2023-04-27T09:34:27.744Z,1002.47
2023-04-27T09:35:27.687Z,1002.47
2023-04-27T09:36:27.711Z,1002.45
2023-04-27T09:37:27.722Z,1002.49
2023-04-27T09:38:27.689Z,1002.44
2023-04-27T09:39:27.670Z,1002.38
2023-04-27T09:40:27.689Z,1002.33
2023-04-27T09:41:27.649Z,1002.23
2023-04-27T09:42:27.636Z,1002.16
2023-04-27T09:43:27.594Z,1002.17
2023-04-27T09:44:27.624Z,1002.28
2023-04-27T09:45:27.654Z,1002.23
2023-04-27T09:46:27.667Z,1002.18
2023-04-27T09:47:27.560Z,1002.07
2023-04-27T09:48:27.562Z,1002.27
2023-04-27T09:49:27.553Z,1002.28
2023-04-27T09:50:27.534Z,1002.21
2023-04-27T09:51:27.544Z,1002.22
2023-04-27T09:52:27.518Z,1002.08
2023-04-27T09:53:27.499Z,1001.99
2023-04-27T09:54:27.504Z,1001.96
2023-04-27T09:55:27.471Z,1002.00
2023-04-27T09:56:27.446Z,1002.06
2023-04-27T09:57:27.516Z,1002.22
2023-04-27T09:58:27.445Z,1002.16
2023-04-27T09:59:27.461Z,1002.15
2023-04-27T10:00:27.403Z,1002.18
2023-04-27T10:01:27.448Z,1002.11
2023-04-27T10:02:27.445Z,1002.20
2023-04-27T10:03:27.491Z,1002.19
2023-04-27T10:04:27.749Z,1002.18
2023-04-27T10:05:27.402Z,1002.03
2023-04-27T10:06:27.348Z,1002.02
2023-04-27T10:07:27.326Z,1002.02
2023-04-27T10:08:27.335Z,1001.96
2023-04-27T10:09:27.398Z,1001.96
2023-04-27T10:10:27.303Z,1002.00
2023-04-27T10:11:27.286Z,1001.96
2023-04-27T10:12:27.273Z,1001.98
2023-04-27T10:13:27.267Z,1002.07
2023-04-27T10:14:27.290Z,1002.11
2023-04-27T10:15:27.265Z,1002.14
2023-04-27T10:16:27.245Z,1002.10
2023-04-27T10:17:27.294Z,1002.03
2023-04-27T10:18:27.244Z,1001.95
2023-04-27T10:19:27.228Z,1001.95
2023-04-27T10:20:27.247Z,1001.97
2023-04-27T10:21:27.197Z,1001.93
2023-04-27T10:22:27.165Z,1001.92
2023-04-27T10:23:27.147Z,1001.95
2023-04-27T10:24:27.157Z,1001.98
2023-04-27T10:25:27.119Z,1001.94
2023-04-27T10:26:27.153Z,1001.94
2023-04-27T10:27:27.102Z,1001.91
2023-04-27T10:28:28.135Z,1001.89
2023-04-27T10:29:27.099Z,1001.89
2023-04-27T10:30:27.072Z,1001.84
2023-04-27T10:31:27.208Z,1001.91
2023-04-27T10:32:27.109Z,1001.94
2023-04-27T10:33:27.068Z,1001.93
2023-04-27T10:34:27.022Z,1001.89
2023-04-27T10:35:27.021Z,1001.95
2023-04-27T10:36:27.020Z,1001.91
2023-04-27T10:37:27.033Z,1001.90
2023-04-27T10:38:27.012Z,1001.93
2023-04-27T10:39:39.665Z,1001.90
2023-04-27T10:40:27.970Z,1001.91
2023-04-27T10:41:26.986Z,1001.93
2023-04-27T10:42:26.990Z,1001.99
2023-04-27T10:43:26.929Z,1002.13
2023-04-27T10:44:26.915Z,1001.97
2023-04-27T10:45:29.232Z,1002.09
2023-04-27T10:46:26.948Z,1002.01
2023-04-27T10:47:26.945Z,1001.99
2023-04-27T10:48:26.916Z,1002.13
2023-04-27T10:49:26.871Z,1002.09
2023-04-27T10:50:26.843Z,1002.11
2023-04-27T10:51:26.845Z,1002.08
2023-04-27T10:52:26.826Z,1001.94
2023-04-27T10:53:26.893Z,1001.90
2023-04-27T10:54:26.821Z,1001.94
2023-04-27T10:55:26.786Z,1001.97
2023-04-27T10:56:26.802Z,1001.89
2023-04-27T10:57:26.767Z,1001.92
2023-04-27T10:58:34.629Z,1001.88
2023-04-27T10:59:27.787Z,1002.04
2023-04-27T11:00:26.739Z,1001.93
2023-04-27T11:01:26.803Z,1001.86
2023-04-27T11:02:26.804Z,1001.89
2023-04-27T11:03:26.904Z,1001.88
2023-04-27T11:04:26.749Z,1001.86
2023-04-27T11:05:26.680Z,1001.86
2023-04-27T11:06:26.657Z,1001.90
2023-04-27T11:07:26.729Z,1001.87
2023-04-27T11:08:26.652Z,1001.91
2023-04-27T11:09:26.739Z,1001.93
2023-04-27T11:10:26.617Z,1001.86
2023-04-27T11:11:26.623Z,1001.89
2023-04-27T11:12:26.643Z,1001.98
2023-04-27T11:13:26.585Z,1001.96
2023-04-27T11:14:26.611Z,1002.13
2023-04-27T11:15:26.630Z,1002.12
2023-04-27T11:16:26.580Z,1001.97
2023-04-27T11:17:26.602Z,1001.86
2023-04-27T11:18:26.535Z,1001.89
2023-04-27T11:19:26.531Z,1001.88
2023-04-27T11:20:26.538Z,1001.88
2023-04-27T11:21:26.518Z,1001.91
2023-04-27T11:22:26.528Z,1001.90
2023-04-27T11:23:26.522Z,1002.03
2023-04-27T11:24:26.515Z,1001.87
2023-04-27T11:25:26.467Z,1001.79
2023-04-27T11:26:26.441Z,1001.99
2023-04-27T11:27:26.503Z,1001.89
2023-04-27T11:28:26.411Z,1001.84
2023-04-27T11:29:26.410Z,1001.81
2023-04-27T11:30:26.431Z,1001.82
2023-04-27T11:31:26.457Z,1001.83
2023-04-27T11:32:26.418Z,1001.84
2023-04-27T11:33:26.429Z,1001.96
2023-04-27T11:34:26.370Z,1001.82
2023-04-27T11:35:26.350Z,1001.77
2023-04-27T11:36:26.358Z,1001.78
2023-04-27T11:37:26.380Z,1001.78
2023-04-27T11:38:26.392Z,1001.83
2023-04-27T11:39:26.357Z,1001.81
2023-04-27T11:40:26.295Z,1001.88
2023-04-27T11:41:26.310Z,1001.85
2023-04-27T11:42:26.305Z,1001.76
2023-04-27T11:43:26.295Z,1001.78
2023-04-27T11:44:26.249Z,1001.77
2023-04-27T11:45:26.242Z,1001.83
2023-04-27T11:46:26.283Z,1001.86
2023-04-27T11:47:26.242Z,1001.84
2023-04-27T11:48:26.224Z,1001.81
2023-04-27T11:49:26.220Z,1001.81
2023-04-27T11:50:26.175Z,1001.78
2023-04-27T11:51:26.177Z,1001.78
2023-04-27T11:52:26.168Z,1001.81
2023-04-27T11:53:26.146Z,1001.85
2023-04-27T11:54:26.122Z,1001.77
2023-04-27T11:55:26.421Z,1001.77
2023-04-27T11:56:26.191Z,1001.71
2023-04-27T11:57:26.134Z,1001.75
2023-04-27T11:58:26.111Z,1001.76
2023-04-27T11:59:26.074Z,1001.78
2023-04-27T12:00:26.086Z,1001.83
2023-04-27T12:01:36.980Z,1001.81
2023-04-27T12:02:27.208Z,1001.81
2023-04-27T12:03:26.345Z,1001.84
2023-04-27T12:04:26.138Z,1001.86
2023-04-27T12:05:26.188Z,1001.84